Aida — SBLI — position and weather

sailwx.info

Track history (hours):
 
Tides and Currents Weather Stations Pressure Air Temp Water Temp Dewpoint Dewpoint Depression Visibility Wind Speed Wind Dir Waves Ship Positions

Aida

Last reported at 2015-Apr-19 12:00 UTC. Time now 2015-Apr-19 21:04 UTC.
Position N 15°30' W 018°12'.

Length 199.1 m; beam 32.3 m; draft 9.5 m.

Type: Cargo ship. MMSI: 266211000.

Water temperature 19.2 ° C

Date/timePositionNaut miles runAvg speedWind from/ knotsBaromVisibWave heightAir tempDewpointWater temp
2015-Apr-19 12:00N 15°30' W 018°12'10217.0 19.2
2015-Apr-19 06:00N 17°12' W 018°06'10217.0 360 / 191008.610.8 1.018.2 19.6
2015-Apr-19 00:00N 18°54' W 018°12'10217.0 1016.210.8 17.1 17.4
2015-Apr-18 18:00N 20°36' W 018°12'10417.4 17.2
2015-Apr-18 12:00N 22°18' W 017°48'10417.4 020 / 191018.410.8 0.518.8 19.0
2015-Apr-18 06:00N 24°00' W 017°24'10016.6 0.5 18.5
2015-Apr-18 00:00N 25°36' W 016°54'10417.4 0.5 18.4
2015-Apr-17 18:00N 27°18' W 016°30'9916.6 0.5 18.6
2015-Apr-17 12:00N 28°48' W 015°42'10116.8 0.5 18.6
2015-Apr-17 06:00N 30°24' W 015°06'10116.8 0.5 18.1
2015-Apr-17 00:00N 32°00' W 014°30'10617.7 0.5 17.4
2015-Apr-16 18:00N 33°42' W 013°54'10217.0 0.5 17.2
2015-Apr-16 12:00N 35°18' W 013°12'11318.9 0.5 16.5
2015-Apr-16 06:00N 37°06' W 012°30'10016.7 0.5 16.3
2015-Apr-16 00:00N 38°42' W 011°54'10116.9 0.5 16.0
2015-Apr-15 18:00N 40°18' W 011°12'20216.8 0.5 15.6
2015-Apr-15 06:00N 43°30' W 009°48'10016.7 0.5 13.3
2015-Apr-15 00:00N 44°00' W 007°36'7316.0 0.5 13.3
2015-Apr-14 19:24N 43°46' W 005°56'1817.0
2015-Apr-14 18:19N 43°43' W 005°31'929.0
2015-Apr-14 18:00N 43°42' W 005°18'1112.6 110 / 141011.410.8 0.515.7 13.7
2015-Apr-14 17:08N 43°41' W 005°03'230 8.8
2015-Apr-13 15:05N 47°30' W 005°26'5218.3
2015-Apr-13 12:14N 48°20' W 005°48'13415.4
2015-Apr-13 03:32N 49°50' W 003°16'1817.0
2015-Apr-13 02:29N 49°58' W 002°51'1916.3
2015-Apr-13 01:20N 50°07' W 002°25'3016.2
2015-Apr-12 23:30N 50°20' W 001°43'1617.3
2015-Apr-12 22:34N 50°27' W 001°21'1616.4
2015-Apr-12 21:34N 50°36' W 000°60'9 9.1
2015-Apr-12 20:33N 50°45' W 001°06'1110.8
2015-Apr-12 19:33N 50°51' W 001°20'3 3.4
2015-Apr-12 18:32N 50°53' W 001°24'0 0.0
2015-Apr-12 17:32N 50°53' W 001°24'0 0.0
2015-Apr-12 16:32N 50°53' W 001°24'0 0.0
2015-Apr-12 15:32N 50°53' W 001°24'0 0.0
2015-Apr-12 14:32N 50°53' W 001°24'4 4.0
2015-Apr-12 13:33N 50°50' W 001°19'8 8.3
2015-Apr-12 12:33N 50°46' W 001°09'1110.9
2015-Apr-12 11:34N 50°40' W 000°54'9 8.6
2015-Apr-12 10:33N 50°36' W 000°42'9 9.1
2015-Apr-12 09:33N 50°34' W 000°28'10 9.3
2015-Apr-12 08:28N 50°33' W 000°12'1011.4
2015-Apr-12 07:33N 50°34' E 000°04'1414.1
2015-Apr-12 06:33N 50°37' E 000°26'1414.4
2015-Apr-12 05:33N 50°43' E 000°46'1514.6
2015-Apr-12 04:31N 50°52' E 001°06'1313.6
2015-Apr-12 03:33N 51°01' E 001°21'1313.2
2015-Apr-12 02:33N 51°09' E 001°38'1414.3
2015-Apr-12 01:33N 51°20' E 001°52'1212.1
2015-Apr-12 00:33N 51°22' E 002°11'1515.1
2015-Apr-11 23:33N 51°23' E 002°35'1414.5
2015-Apr-11 22:33N 51°23' E 002°58'10 9.5
2015-Apr-11 21:33N 51°20' E 003°13'0 0.0
2015-Apr-11 20:33N 51°20' E 003°13'1 1.4
2015-Apr-11 19:33N 51°19' E 003°14'0 0.0
2015-Apr-11 18:33N 51°19' E 003°14'0 0.0
2015-Apr-11 17:33N 51°19' E 003°14'0 0.0
2015-Apr-11 16:27N 51°19' E 003°14'0 0.0
2015-Apr-11 15:33N 51°19' E 003°14'0 0.0
2015-Apr-11 14:33N 51°19' E 003°14'0 0.0
2015-Apr-11 13:33N 51°19' E 003°14'0 0.0
2015-Apr-11 12:27N 51°19' E 003°14'0 0.0
2015-Apr-11 11:33N 51°19' E 003°14'0 0.0
2015-Apr-11 10:21N 51°19' E 003°14'0 0.0
2015-Apr-11 09:33N 51°19' E 003°14'0 0.0
2015-Apr-11 08:33N 51°19' E 003°14'0 0.0
2015-Apr-11 07:33N 51°19' E 003°14'0 0.0
2015-Apr-11 06:27N 51°19' E 003°14'0 0.0
2015-Apr-11 05:33N 51°19' E 003°14'0 0.0
2015-Apr-11 04:33N 51°19' E 003°14'0 0.0
2015-Apr-11 03:33N 51°19' E 003°14'0 0.0
2015-Apr-11 02:33N 51°19' E 003°14'0 0.0
2015-Apr-11 01:33N 51°19' E 003°14'0 0.0
2015-Apr-11 00:33N 51°19' E 003°14'0 0.0
2015-Apr-10 23:33N 51°19' E 003°14'0 0.0
2015-Apr-10 22:15N 51°19' E 003°14'1 0.8
2015-Apr-10 20:33N 51°20' E 003°13'0 0.1
2015-Apr-10 19:33N 51°20' E 003°13'7 6.8
2015-Apr-10 18:33N 51°24' E 003°04'1313.5
2015-Apr-10 17:33N 51°24' E 002°43'1715.6
2015-Apr-10 16:27N 51°42' E 002°45'1617.3
2015-Apr-10 15:30N 51°58' E 002°49'1717.2
2015-Apr-10 14:32N 52°13' E 003°01'1717.2
2015-Apr-10 13:33N 52°27' E 003°16'1717.4
2015-Apr-10 12:33N 52°40' E 003°35'3316.6
2015-Apr-10 10:33N 53°04' E 004°13'1715.0
2015-Apr-10 09:25N 53°18' E 004°29'1314.7
2015-Apr-10 08:34N 53°29' E 004°40'1515.0
2015-Apr-10 07:33N 53°34' E 005°04'1616.1
2015-Apr-10 06:33N 53°40' E 005°29'1717.2
2015-Apr-10 05:33N 53°45' E 005°57'1717.3
2015-Apr-10 04:33N 53°50' E 006°25'1716.9
2015-Apr-10 03:33N 53°54' E 006°52'1616.2
2015-Apr-10 02:33N 53°58' E 007°20'1413.6
2015-Apr-10 01:33N 53°56' E 007°42'1313.4
2015-Apr-10 00:33N 53°51' E 008°03'1414.0
2015-Apr-09 23:33N 53°41' E 008°21'1010.4
2015-Apr-09 22:34N 53°34' E 008°33'1 0.8
2015-Apr-09 21:34N 53°35' E 008°33'0 0.0
2015-Apr-09 20:31N 53°35' E 008°33'0 0.0
2015-Apr-09 19:31N 53°35' E 008°33'0 0.0
2015-Apr-09 18:31N 53°35' E 008°33'0 0.0
2015-Apr-09 17:31N 53°35' E 008°33'0 0.0
2015-Apr-09 16:31N 53°35' E 008°33'0 0.0
2015-Apr-09 15:31N 53°35' E 008°33'0 0.0
2015-Apr-09 14:31N 53°35' E 008°33'0 0.0
2015-Apr-09 13:31N 53°35' E 008°33'0 0.0
2015-Apr-09 12:31N 53°35' E 008°33'  
Track history (hours):
 
Tides and Currents Weather Stations Pressure Air Temp Water Temp Dewpoint Dewpoint Depression Visibility Wind Speed Wind Dir Waves Ship Positions

Aida

Last reported at 2015-Apr-19 12:00 UTC. Time now 2015-Apr-19 21:04 UTC.
Position N 15°30' W 018°12'.

Length 199.1 m; beam 32.3 m; draft 9.5 m.

Type: Cargo ship. MMSI: 266211000.

Water temperature 19.2 ° C

Date/timePositionNaut miles runAvg speedWind from/ knotsBaromVisibWave heightAir tempDewpointWater temp
2015-Apr-19 12:00N 15°30' W 018°12'10217.0 19.2
2015-Apr-19 06:00N 17°12' W 018°06'10217.0 360 / 191008.610.8 1.018.2 19.6
2015-Apr-19 00:00N 18°54' W 018°12'10217.0 1016.210.8 17.1 17.4
2015-Apr-18 18:00N 20°36' W 018°12'10417.4 17.2
2015-Apr-18 12:00N 22°18' W 017°48'10417.4 020 / 191018.410.8 0.518.8 19.0
2015-Apr-18 06:00N 24°00' W 017°24'10016.6 0.5 18.5
2015-Apr-18 00:00N 25°36' W 016°54'10417.4 0.5 18.4
2015-Apr-17 18:00N 27°18' W 016°30'9916.6 0.5 18.6
2015-Apr-17 12:00N 28°48' W 015°42'10116.8 0.5 18.6
2015-Apr-17 06:00N 30°24' W 015°06'10116.8 0.5 18.1
2015-Apr-17 00:00N 32°00' W 014°30'10617.7 0.5 17.4
2015-Apr-16 18:00N 33°42' W 013°54'10217.0 0.5 17.2
2015-Apr-16 12:00N 35°18' W 013°12'11318.9 0.5 16.5
2015-Apr-16 06:00N 37°06' W 012°30'10016.7 0.5 16.3
2015-Apr-16 00:00N 38°42' W 011°54'10116.9 0.5 16.0
2015-Apr-15 18:00N 40°18' W 011°12'20216.8 0.5 15.6
2015-Apr-15 06:00N 43°30' W 009°48'10016.7 0.5 13.3
2015-Apr-15 00:00N 44°00' W 007°36'7316.0 0.5 13.3
2015-Apr-14 19:24N 43°46' W 005°56'1817.0
2015-Apr-14 18:19N 43°43' W 005°31'929.0
2015-Apr-14 18:00N 43°42' W 005°18'1112.6 110 / 141011.410.8 0.515.7 13.7
2015-Apr-14 17:08N 43°41' W 005°03'230 8.8
2015-Apr-13 15:05N 47°30' W 005°26'5218.3
2015-Apr-13 12:14N 48°20' W 005°48'13415.4
2015-Apr-13 03:32N 49°50' W 003°16'1817.0
2015-Apr-13 02:29N 49°58' W 002°51'1916.3
2015-Apr-13 01:20N 50°07' W 002°25'3016.2
2015-Apr-12 23:30N 50°20' W 001°43'1617.3
2015-Apr-12 22:34N 50°27' W 001°21'1616.4
2015-Apr-12 21:34N 50°36' W 000°60'9 9.1
2015-Apr-12 20:33N 50°45' W 001°06'1110.8
2015-Apr-12 19:33N 50°51' W 001°20'3 3.4
2015-Apr-12 18:32N 50°53' W 001°24'0 0.0
2015-Apr-12 17:32N 50°53' W 001°24'0 0.0
2015-Apr-12 16:32N 50°53' W 001°24'0 0.0
2015-Apr-12 15:32N 50°53' W 001°24'0 0.0
2015-Apr-12 14:32N 50°53' W 001°24'4 4.0
2015-Apr-12 13:33N 50°50' W 001°19'8 8.3
2015-Apr-12 12:33N 50°46' W 001°09'1110.9
2015-Apr-12 11:34N 50°40' W 000°54'9 8.6
2015-Apr-12 10:33N 50°36' W 000°42'9 9.1
2015-Apr-12 09:33N 50°34' W 000°28'10 9.3
2015-Apr-12 08:28N 50°33' W 000°12'1011.4
2015-Apr-12 07:33N 50°34' E 000°04'1414.1
2015-Apr-12 06:33N 50°37' E 000°26'1414.4
2015-Apr-12 05:33N 50°43' E 000°46'1514.6
2015-Apr-12 04:31N 50°52' E 001°06'1313.6
2015-Apr-12 03:33N 51°01' E 001°21'1313.2
2015-Apr-12 02:33N 51°09' E 001°38'1414.3
2015-Apr-12 01:33N 51°20' E 001°52'1212.1
2015-Apr-12 00:33N 51°22' E 002°11'1515.1
2015-Apr-11 23:33N 51°23' E 002°35'1414.5
2015-Apr-11 22:33N 51°23' E 002°58'10 9.5
2015-Apr-11 21:33N 51°20' E 003°13'0 0.0
2015-Apr-11 20:33N 51°20' E 003°13'1 1.4
2015-Apr-11 19:33N 51°19' E 003°14'0 0.0
2015-Apr-11 18:33N 51°19' E 003°14'0 0.0
2015-Apr-11 17:33N 51°19' E 003°14'0 0.0
2015-Apr-11 16:27N 51°19' E 003°14'0 0.0
2015-Apr-11 15:33N 51°19' E 003°14'0 0.0
2015-Apr-11 14:33N 51°19' E 003°14'0 0.0
2015-Apr-11 13:33N 51°19' E 003°14'0 0.0
2015-Apr-11 12:27N 51°19' E 003°14'0 0.0
2015-Apr-11 11:33N 51°19' E 003°14'0 0.0
2015-Apr-11 10:21N 51°19' E 003°14'0 0.0
2015-Apr-11 09:33N 51°19' E 003°14'0 0.0
2015-Apr-11 08:33N 51°19' E 003°14'0 0.0
2015-Apr-11 07:33N 51°19' E 003°14'0 0.0
2015-Apr-11 06:27N 51°19' E 003°14'0 0.0
2015-Apr-11 05:33N 51°19' E 003°14'0 0.0
2015-Apr-11 04:33N 51°19' E 003°14'0 0.0
2015-Apr-11 03:33N 51°19' E 003°14'0 0.0
2015-Apr-11 02:33N 51°19' E 003°14'0 0.0
2015-Apr-11 01:33N 51°19' E 003°14'0 0.0
2015-Apr-11 00:33N 51°19' E 003°14'0 0.0
2015-Apr-10 23:33N 51°19' E 003°14'0 0.0
2015-Apr-10 22:15N 51°19' E 003°14'1 0.8
2015-Apr-10 20:33N 51°20' E 003°13'0 0.1
2015-Apr-10 19:33N 51°20' E 003°13'7 6.8
2015-Apr-10 18:33N 51°24' E 003°04'1313.5
2015-Apr-10 17:33N 51°24' E 002°43'1715.6
2015-Apr-10 16:27N 51°42' E 002°45'1617.3
2015-Apr-10 15:30N 51°58' E 002°49'1717.2
2015-Apr-10 14:32N 52°13' E 003°01'1717.2
2015-Apr-10 13:33N 52°27' E 003°16'1717.4
2015-Apr-10 12:33N 52°40' E 003°35'3316.6
2015-Apr-10 10:33N 53°04' E 004°13'1715.0
2015-Apr-10 09:25N 53°18' E 004°29'1314.7
2015-Apr-10 08:34N 53°29' E 004°40'1515.0
2015-Apr-10 07:33N 53°34' E 005°04'1616.1
2015-Apr-10 06:33N 53°40' E 005°29'1717.2
2015-Apr-10 05:33N 53°45' E 005°57'1717.3
2015-Apr-10 04:33N 53°50' E 006°25'1716.9
2015-Apr-10 03:33N 53°54' E 006°52'1616.2
2015-Apr-10 02:33N 53°58' E 007°20'1413.6
2015-Apr-10 01:33N 53°56' E 007°42'1313.4
2015-Apr-10 00:33N 53°51' E 008°03'1414.0
2015-Apr-09 23:33N 53°41' E 008°21'1010.4
2015-Apr-09 22:34N 53°34' E 008°33'1 0.8
2015-Apr-09 21:34N 53°35' E 008°33'0 0.0
2015-Apr-09 20:31N 53°35' E 008°33'0 0.0
2015-Apr-09 19:31N 53°35' E 008°33'0 0.0
2015-Apr-09 18:31N 53°35' E 008°33'0 0.0
2015-Apr-09 17:31N 53°35' E 008°33'0 0.0
2015-Apr-09 16:31N 53°35' E 008°33'0 0.0
2015-Apr-09 15:31N 53°35' E 008°33'0 0.0
2015-Apr-09 14:31N 53°35' E 008°33'0 0.0
2015-Apr-09 13:31N 53°35' E 008°33'0 0.0
2015-Apr-09 12:31N 53°35' E 008°33'  

Dump ship's entire track history